^^
Station Historical Data
 
Daily Summary for October 18, 2018 Units:  Metric    English   Both
« Previous Day
Next Day »
Daily Weekly Monthly Yearly Custom
  Current: High: Low: Average:
Temperature: 21.7 °C -17.8 °C 11.8 °C 13.3 °C
Dew Point: 13.8 °C -17.8 °C 8.4 °C 9.4 °C
Humidity: 61% Humidity% 61% 76%
Wind Speed: 9.7km/h 0km/h 0km/h 2.6km/h
Wind Gust: 17.7km/h 0km/h - -
WindNNE - - SSE
Pressure: 1015.8 hPa 0 hPa 1015.8 hPa -
Precipitation: 0 mm      
Historical Graphs
 
 
Tabular Data for October 18, 2018
Time Temperature Dew Point Pressure Wind Wind Speed Wind Gust Humidity Rainfall Rate (Hourly) solar Conditions
-17.8 °C -17.8 °C 0 hPa Calm     Humidity% 0 mm SoftwareType W/m2 Conditions
00:00 13.9 °C 8.9 °C 1018.2 hPa SW 4.8 km/h 6.4 km/h 72% 0 mm WeatherDisplay:10.37 W/m2 CLR
00:10 13.9 °C 8.9 °C 1017.8 hPa WNW 1.6 km/h 4.8 km/h 72% 0 mm WeatherDisplay:10.37 W/m2 CLR
00:20 13.8 °C 8.8 °C 1018.2 hPa Calm   3.2 km/h 72% 0 mm WeatherDisplay:10.37 W/m2 CLR
00:30 13.7 °C 8.7 °C 1018.2 hPa SSW 1.6 km/h 3.2 km/h 72% 0 mm WeatherDisplay:10.37 W/m2 CLR
00:40 13.6 °C 8.8 °C 1017.8 hPa Calm   3.2 km/h 73% 0 mm WeatherDisplay:10.37 W/m2 CLR
00:50 13.4 °C 8.9 °C 1017.8 hPa WSW 1.6 km/h 3.2 km/h 74% 0 mm WeatherDisplay:10.37 W/m2 CLR
01:00 13.4 °C 8.8 °C 1017.8 hPa North 1.6 km/h 3.2 km/h 74% 0 mm WeatherDisplay:10.37 W/m2 CLR
01:10 13.4 °C 8.8 °C 1017.8 hPa NNW 3.2 km/h 4.8 km/h 74% 0 mm WeatherDisplay:10.37 W/m2 CLR
01:20 13.2 °C 8.4 °C 1017.8 hPa Calm   4.8 km/h 73% 0 mm WeatherDisplay:10.37 W/m2 CLR
01:30 13.1 °C 8.6 °C 1017.8 hPa WSW 1.6 km/h 3.2 km/h 74% 0 mm WeatherDisplay:10.37 W/m2 CLR
01:40 13 °C 8.4 °C 1017.8 hPa Calm   3.2 km/h 74% 0 mm WeatherDisplay:10.37 W/m2 CLR
01:50 12.9 °C 8.6 °C 1017.8 hPa Calm   3.2 km/h 75% 0 mm WeatherDisplay:10.37 W/m2 CLR
02:00 12.8 °C 8.5 °C 1017.8 hPa Calm   3.2 km/h 75% 0 mm WeatherDisplay:10.37 W/m2 CLR
02:10 12.8 °C 8.5 °C 1017.8 hPa Calm   3.2 km/h 75% 0 mm WeatherDisplay:10.37 W/m2 CLR
02:20 12.7 °C 8.6 °C 1017.8 hPa Calm   1.6 km/h 76% 0 mm WeatherDisplay:10.37 W/m2 CLR
02:30 12.7 °C 8.6 °C 1017.8 hPa SW 1.6 km/h 3.2 km/h 76% 0 mm WeatherDisplay:10.37 W/m2 CLR
02:40 12.6 °C 8.5 °C 1017.8 hPa Calm   1.6 km/h 76% 0 mm WeatherDisplay:10.37 W/m2 CLR
02:50 12.6 °C 8.5 °C 1017.8 hPa Calm     76% 0 mm WeatherDisplay:10.37 W/m2 CLR
03:00 12.6 °C 8.5 °C 1017.5 hPa Calm     76% 0 mm WeatherDisplay:10.37 W/m2 CLR
03:10 12.6 °C 8.7 °C 1017.5 hPa SSW 1.6 km/h 3.2 km/h 77% 0 mm WeatherDisplay:10.37 W/m2 CLR
03:20 12.5 °C 8.6 °C 1017.5 hPa WSW 1.6 km/h 3.2 km/h 77% 0 mm WeatherDisplay:10.37 W/m2 CLR
03:30 12.5 °C 8.8 °C 1017.5 hPa WSW 3.2 km/h 6.4 km/h 78% 0 mm WeatherDisplay:10.37 W/m2 CLR
03:40 12.5 °C 8.8 °C 1017.2 hPa WSW 1.6 km/h 6.4 km/h 78% 0 mm WeatherDisplay:10.37 W/m2 CLR
03:50 12.4 °C 8.7 °C 1017.2 hPa Calm   3.2 km/h 78% 0 mm WeatherDisplay:10.37 W/m2 CLR
04:00 12.4 °C 8.7 °C 1017.2 hPa Calm   1.6 km/h 78% 0 mm WeatherDisplay:10.37 W/m2 CLR
04:10 12.3 °C 8.6 °C 1017.2 hPa Calm     78% 0 mm WeatherDisplay:10.37 W/m2 CLR
04:20 12.3 °C 8.8 °C 1017.2 hPa SW 3.2 km/h 6.4 km/h 79% 0 mm WeatherDisplay:10.37 W/m2 CLR
04:30 12.3 °C 8.8 °C 1017.2 hPa WSW 1.6 km/h 4.8 km/h 79% 0 mm WeatherDisplay:10.37 W/m2 CLR
04:40 12.2 °C 8.7 °C 1017.2 hPa SW 1.6 km/h 4.8 km/h 79% 0 mm WeatherDisplay:10.37 W/m2 CLR
04:50 12.2 °C 8.8 °C 1017.2 hPa SW 1.6 km/h 3.2 km/h 80% 0 mm WeatherDisplay:10.37 W/m2 CLR
05:00 12.1 °C 8.8 °C 1017.2 hPa SW 1.6 km/h 3.2 km/h 80% 0 mm WeatherDisplay:10.37 W/m2 CLR
05:10 12 °C 8.7 °C 1017.2 hPa SW 1.6 km/h 3.2 km/h 80% 0 mm WeatherDisplay:10.37 W/m2 CLR
05:20 12 °C 8.7 °C 1017.2 hPa Calm   3.2 km/h 80% 0 mm WeatherDisplay:10.37 W/m2 CLR
05:30 12 °C 8.7 °C 1017.2 hPa Calm   1.6 km/h 80% 0 mm WeatherDisplay:10.37 W/m2 CLR
05:40 12 °C 8.7 °C 1017.2 hPa Calm   1.6 km/h 80% 0 mm WeatherDisplay:10.37 W/m2 CLR
05:50 11.9 °C 8.9 °C 1016.8 hPa Calm     82% 0 mm WeatherDisplay:10.37 W/m2 CLR
06:00 11.9 °C 8.9 °C 1016.8 hPa Calm   3.2 km/h 82% 0 mm WeatherDisplay:10.37 W/m2 CLR
06:10 11.9 °C 9.1 °C 1016.8 hPa SE 1.6 km/h 3.2 km/h 83% 0 mm WeatherDisplay:10.37 W/m2 CLR
06:20 11.9 °C 9.3 °C 1016.8 hPa South 1.6 km/h 4.8 km/h 84% 0 mm WeatherDisplay:10.37 W/m2 CLR
06:30 11.9 °C 9.3 °C 1017.2 hPa SSW 3.2 km/h 4.8 km/h 84% 0 mm WeatherDisplay:10.37 W/m2 CLR
06:40 11.9 °C 9.3 °C 1016.8 hPa Calm   4.8 km/h 84% 0 mm WeatherDisplay:10.37 W/m2 CLR
06:50 11.8 °C 9.3 °C 1016.8 hPa SSE 3.2 km/h 4.8 km/h 85% 0 mm WeatherDisplay:10.37 W/m2 CLR
07:00 11.9 °C 9.4 °C 1016.8 hPa SSE 1.6 km/h 6.4 km/h 85% 0 mm WeatherDisplay:10.37 W/m2 CLR
07:10 11.8 °C 9.3 °C 1017.2 hPa Calm   4.8 km/h 85% 0 mm WeatherDisplay:10.37 W/m2 CLR
07:20 11.8 °C 9.3 °C 1017.2 hPa Calm   3.2 km/h 85% 0 mm WeatherDisplay:10.37 W/m2 CLR
07:30 11.8 °C 9.3 °C 1017.5 hPa SW 1.6 km/h 4.8 km/h 85% 0 mm WeatherDisplay:10.37 W/m2 CLR
07:40 11.9 °C 9.4 °C 1017.5 hPa SSW 1.6 km/h 6.4 km/h 85% 0 mm WeatherDisplay:10.37 W/m2 CLR
07:50 11.9 °C 9.4 °C 1017.5 hPa Calm   3.2 km/h 85% 0 mm WeatherDisplay:10.37 W/m2 CLR
08:00 11.9 °C 9.4 °C 1017.5 hPa Calm   3.2 km/h 85% 0 mm WeatherDisplay:10.37 W/m2 CLR
08:10 12 °C 9 °C 1017.5 hPa Calm   1.6 km/h 82% 0 mm WeatherDisplay:10.37 W/m2 CLR
08:20 12.1 °C 9.1 °C 1017.8 hPa SSW 1.6 km/h 3.2 km/h 82% 0 mm WeatherDisplay:10.37 W/m2 CLR
08:30 12.3 °C 9.5 °C 1017.5 hPa SSW 1.6 km/h 4.8 km/h 83% 0 mm WeatherDisplay:10.37 W/m2 CLR
08:40 12.4 °C 9.7 °C 1017.5 hPa SSW 1.6 km/h 3.2 km/h 83% 0 mm WeatherDisplay:10.37 W/m2 CLR
08:50 12.7 °C 9.9 °C 1017.5 hPa Calm   3.2 km/h 83% 0 mm WeatherDisplay:10.37 W/m2 CLR
09:00 12.9 °C 9.9 °C 1017.5 hPa Calm   1.6 km/h 82% 0 mm WeatherDisplay:10.37 W/m2 CLR
09:10 13.2 °C 10.2 °C 1017.5 hPa South 1.6 km/h 3.2 km/h 82% 0 mm WeatherDisplay:10.37 W/m2 CLR
09:20 13.5 °C 10.5 °C 1017.5 hPa NE 4.8 km/h 9.7 km/h 82% 0 mm WeatherDisplay:10.37 W/m2 CLR
09:30 13.8 °C 10.6 °C 1017.5 hPa ENE 1.6 km/h 9.7 km/h 81% 0 mm WeatherDisplay:10.37 W/m2 CLR
09:40 14 °C 10.8 °C 1017.5 hPa SE 1.6 km/h 6.4 km/h 81% 0 mm WeatherDisplay:10.37 W/m2 CLR
09:50 14.3 °C 11.1 °C 1017.5 hPa NE 1.6 km/h 6.4 km/h 81% 0 mm WeatherDisplay:10.37 W/m2 CLR
10:00 14.8 °C 11.4 °C 1017.5 hPa SE 3.2 km/h 6.4 km/h 80% 0 mm WeatherDisplay:10.37 W/m2 CLR
10:10 15.6 °C 12.1 °C 1017.2 hPa NE 8 km/h 12.9 km/h 80% 0 mm WeatherDisplay:10.37 W/m2 CLR
10:20 16.1 °C 12.3 °C 1017.2 hPa NE 4.8 km/h 14.5 km/h 78% 0 mm WeatherDisplay:10.37 W/m2 CLR
10:30 16.7 °C 12.4 °C 1017.2 hPa NNE 3.2 km/h 17.7 km/h 76% 0 mm WeatherDisplay:10.37 W/m2 CLR
10:40 17.3 °C 12.2 °C 1016.8 hPa NE 12.9 km/h 17.7 km/h 72% 0 mm WeatherDisplay:10.37 W/m2 CLR
10:50 17.9 °C 12.4 °C 1016.8 hPa NNE 8 km/h 16.1 km/h 70% 0 mm WeatherDisplay:10.37 W/m2 CLR
11:00 18.6 °C 12.8 °C 1016.8 hPa North 8 km/h 14.5 km/h 69% 0 mm WeatherDisplay:10.37 W/m2 CLR
11:10 19.1 °C 12.8 °C 1016.8 hPa North 9.7 km/h 17.7 km/h 67% 0 mm WeatherDisplay:10.37 W/m2 CLR
11:20 19.7 °C 13.2 °C 1016.5 hPa NE 9.7 km/h 17.7 km/h 66% 0 mm WeatherDisplay:10.37 W/m2 CLR
11:30 20.1 °C 13.1 °C 1016.5 hPa North 12.9 km/h 20.9 km/h 64% 0 mm WeatherDisplay:10.37 W/m2 CLR
11:40 20.6 °C 13.3 °C 1016.5 hPa North 12.9 km/h 22.5 km/h 63% 0 mm WeatherDisplay:10.37 W/m2 CLR
11:50 21.1 °C 13.5 °C 1016.1 hPa NNE 11.3 km/h 25.7 km/h 62% 0 mm WeatherDisplay:10.37 W/m2 CLR
12:00 21.3 °C 13.7 °C 1015.8 hPa North 12.9 km/h 22.5 km/h 62% 0 mm WeatherDisplay:10.37 W/m2 CLR
12:10 21.7 °C 13.8 °C 1015.8 hPa NNE 9.7 km/h 17.7 km/h 61% 0 mm WeatherDisplay:10.37 W/m2 CLR
Knjazevac Weather
Compliments of Weather Underground - 2 mb